Kenema Airport

Jump to: basic info | weather | comments

Related pages: nearby airports | nearby navaids | notams | map

Basic information (top)

Codes: KEN GFKE
Location: lon 7.891290, lat -11.176600, elev 485 ft / 148 m msl
Status: medium_airport
Scheduled airline service: yes
Links: Wikipedia Mobile

Weather (top)

Current conditions for Roberts International Airport 111nm (205km) SSE (rec'd 2014/10/20 09:30Z):

GLRB 200930Z 00000KT 9999 SCT014 BKN100 27/24 Q1014 NOSIG

Airport forecast for Roberts International Airport 111nm (205km) SSE (rec'd 2014/10/19 00:54Z):

TAF GLRB 192200Z 2000/2106 21010KT 9999 BKN017 FEW025 CB 
     FM200100 04005KT 9999 TS SCT012 FEW023CB 
      TEMPO 2008/2012 20008KT 9999 
      BECMG 2014/2016 23010KT 7000 SHRA/TSRA BKN015 FEW024CB

Latest comments (top)

No comments yet for Kenema Airport

More... (top)

See also NOTAMs and nearby airports and navaids, or visit the Kenema Airport page at the main OurAirports website..